Time;durP1;ratioP1;P1;durP2;ratioP2;P2;SDS_P1;SDS_P2;PMS_P1;PMS_P2;Temp;Humidity;BMP_temperature;BMP_pressure;BME280_temperature;BME280_humidity;BME280_pressure;Samples;Min_cycle;Max_cycle;Signal;HPM_P1;HPM_P2
2021/07/21 00:00:15;;;;;;;11.50;5.50;;;;;;;14.02;54.27;102207.78;5052081;28;20033;-66
2021/07/21 00:02:41;;;;;;;10.75;5.80;;;;;;;14.02;54.47;102203.38;5054272;28;20036;-65
2021/07/21 00:05:11;;;;;;;12.32;5.30;;;;;;;14.03;54.37;102209.50;5050643;28;20033;-64
2021/07/21 00:07:36;;;;;;;11.02;5.78;;;;;;;13.97;54.29;102212.34;5052195;28;20124;-65
2021/07/21 00:10:07;;;;;;;9.90;7.03;;;;;;;13.92;54.31;102215.97;5054743;28;20158;-66
2021/07/21 00:15:19;;;;;;;11.40;5.80;;;;;;;13.88;54.48;102216.97;5051886;28;20278;-64
2021/07/21 00:17:45;;;;;;;11.95;5.72;;;;;;;13.94;54.42;102208.91;5051523;28;20131;-65
2021/07/21 00:20:12;;;;;;;12.98;6.72;;;;;;;13.95;54.66;102207.13;5054028;28;20032;-68
2021/07/21 00:22:40;;;;;;;15.52;7.20;;;;;;;13.90;54.66;102217.78;5054909;28;20032;-68
2021/07/21 00:25:09;;;;;;;13.82;6.30;;;;;;;13.97;54.32;102215.81;5051631;28;20452;-65
2021/07/21 00:27:35;;;;;;;15.38;5.70;;;;;;;13.97;54.19;102207.09;5051464;28;20029;-67
2021/07/21 00:30:03;;;;;;;11.18;6.13;;;;;;;13.85;54.04;102205.69;5052175;28;20059;-66
2021/07/21 00:32:28;;;;;;;12.93;6.85;;;;;;;13.81;54.39;102211.97;5067889;28;20093;-67
2021/07/21 00:34:54;;;;;;;13.05;6.65;;;;;;;13.72;54.32;102205.25;5050720;28;20501;-68
2021/07/21 00:37:20;;;;;;;13.25;7.03;;;;;;;13.64;54.44;102209.88;5052366;28;20913;-66
2021/07/21 00:39:45;;;;;;;14.43;7.47;;;;;;;13.56;54.79;102214.47;5052063;28;20164;-66
2021/07/21 00:42:11;;;;;;;10.63;6.25;;;;;;;13.61;54.70;102208.22;5055454;28;20306;-66
2021/07/21 00:44:38;;;;;;;11.73;6.40;;;;;;;13.62;54.69;102209.06;5053978;28;20029;-67
2021/07/21 00:47:05;;;;;;;12.27;6.47;;;;;;;13.62;54.52;102203.81;5055645;28;20035;-68
2021/07/21 00:49:31;;;;;;;15.35;7.03;;;;;;;13.59;54.52;102206.56;5050567;28;20028;-68
2021/07/21 00:51:56;;;;;;;17.45;8.50;;;;;;;13.45;54.91;102202.56;5055263;28;20360;-66
2021/07/21 00:54:22;;;;;;;14.18;6.85;;;;;;;13.40;54.77;102207.06;5049816;28;20504;-68
2021/07/21 00:56:49;;;;;;;13.35;7.05;;;;;;;13.47;54.81;102205.13;5053175;28;20039;-68
2021/07/21 00:59:17;;;;;;;16.33;5.68;;;;;;;13.53;54.31;102213.66;5050684;28;20469;-68
2021/07/21 01:01:42;;;;;;;13.30;6.93;;;;;;;13.53;54.78;102205.78;5049905;28;20122;-69
2021/07/21 01:04:08;;;;;;;11.20;6.20;;;;;;;13.55;54.56;102207.53;5051994;28;20125;-68
2021/07/21 01:06:36;;;;;;;12.40;5.85;;;;;;;13.60;54.53;102210.88;5052023;28;20389;-68
2021/07/21 01:09:04;;;;;;;13.63;6.47;;;;;;;13.56;54.58;102209.22;5052997;28;20039;-69
2021/07/21 01:12:03;;;;;;;16.10;6.25;;;;;;;13.51;54.32;102207.59;5037741;28;20560;-68
2021/07/21 01:14:48;;;;;;;11.88;6.47;;;;;;;13.56;53.97;102203.97;5049663;28;20274;-68
2021/07/21 01:17:21;;;;;;;11.85;5.68;;;;;;;13.51;54.11;102196.25;5060650;28;20227;-68
2021/07/21 01:20:06;;;;;;;14.10;5.97;;;;;;;13.44;54.02;102200.81;5050573;28;20090;-67
2021/07/21 01:22:36;;;;;;;10.48;5.88;;;;;;;13.42;54.18;102200.00;5050225;28;20464;-68
2021/07/21 01:25:06;;;;;;;11.33;6.40;;;;;;;13.34;54.02;102209.91;5059002;28;20024;-68
2021/07/21 01:27:39;;;;;;;14.80;6.50;;;;;;;13.31;54.16;102210.84;5049954;28;20098;-67
2021/07/21 01:30:13;;;;;;;11.93;5.53;;;;;;;13.31;54.17;102205.59;5051869;28;20064;-67
2021/07/21 01:32:54;;;;;;;10.98;6.10;;;;;;;13.24;54.11;102211.09;5049390;28;20025;-67
2021/07/21 01:35:25;;;;;;;11.40;6.40;;;;;;;13.11;54.23;102208.81;5058953;28;20028;-66
2021/07/21 01:37:57;;;;;;;9.98;5.80;;;;;;;13.13;54.25;102210.56;5039749;28;20540;-67
2021/07/21 01:40:27;;;;;;;14.18;6.97;;;;;;;13.18;54.29;102208.63;5066738;28;20025;-66
2021/07/21 01:42:57;;;;;;;10.55;5.80;;;;;;;13.18;54.29;102206.00;5049103;28;20036;-67
2021/07/21 01:45:26;;;;;;;12.13;5.55;;;;;;;13.22;54.13;102203.25;5049420;28;20028;-66
2021/07/21 01:47:52;;;;;;;11.95;6.00;;;;;;;13.21;54.04;102204.16;5051052;28;20029;-67
2021/07/21 01:50:23;;;;;;;9.57;5.20;;;;;;;13.18;54.49;102208.63;5052189;28;20111;-66
2021/07/21 01:52:51;;;;;;;11.90;6.88;;;;;;;13.12;54.26;102207.06;5050714;28;20071;-65
2021/07/21 01:55:23;;;;;;;14.07;6.63;;;;;;;13.00;54.54;102210.88;5052687;28;20032;-66
2021/07/21 01:57:52;;;;;;;12.27;7.00;;;;;;;12.94;54.94;102210.22;5047990;28;20497;-64
2021/07/21 02:00:37;;;;;;;14.20;6.45;;;;;;;12.94;55.05;102204.97;5066590;28;20378;-66
2021/07/21 02:03:04;;;;;;;12.52;6.82;;;;;;;12.91;55.20;102208.53;5048679;28;20032;-63
2021/07/21 02:05:44;;;;;;;10.75;5.78;;;;;;;13.07;54.93;102207.22;5048768;28;20502;-64
2021/07/21 02:08:11;;;;;;;12.57;5.68;;;;;;;13.16;55.05;102202.56;5051191;28;20037;-64
2021/07/21 02:10:36;;;;;;;13.88;6.50;;;;;;;13.18;54.89;102203.38;5050168;28;20104;-66
2021/07/21 02:13:18;;;;;;;14.77;7.97;;;;;;;13.24;55.16;102205.84;5050717;28;20131;-66
2021/07/21 02:16:07;;;;;;;12.55;6.13;;;;;;;13.41;55.06;102200.09;5035436;28;20120;-66
2021/07/21 02:18:34;;;;;;;11.10;5.68;;;;;;;13.56;54.68;102194.31;5042096;28;20096;-65
2021/07/21 02:21:03;;;;;;;16.63;6.75;;;;;;;13.64;54.97;102200.25;5059071;28;20515;-66
2021/07/21 02:23:30;;;;;;;12.88;7.25;;;;;;;13.74;55.05;102198.16;5040616;28;20036;-68
2021/07/21 02:26:19;;;;;;;13.45;6.93;;;;;;;13.80;54.52;102195.34;5052641;28;20036;-66
2021/07/21 02:28:47;;;;;;;15.48;6.00;;;;;;;13.91;54.50;102200.25;5048661;28;20043;-65
2021/07/21 02:31:20;;;;;;;14.98;7.53;;;;;;;13.94;54.76;102187.88;5051594;28;20051;-66
2021/07/21 02:33:52;;;;;;;13.45;7.65;;;;;;;13.99;54.18;102192.13;5049324;28;20035;-66
2021/07/21 02:36:24;;;;;;;16.48;7.50;;;;;;;14.01;54.15;102188.53;5050575;28;20171;-65
2021/07/21 02:38:51;;;;;;;15.05;6.35;;;;;;;14.05;54.00;102187.50;5050627;28;20027;-67
2021/07/21 02:41:18;;;;;;;19.23;7.38;;;;;;;13.96;54.11;102181.69;5049996;28;20024;-65
2021/07/21 02:43:43;;;;;;;12.48;7.57;;;;;;;13.92;53.75;102184.44;5052726;28;20761;-67
2021/07/21 02:46:10;;;;;;;9.70;5.10;;;;;;;13.92;54.01;102180.97;5049906;28;20029;-66
2021/07/21 02:48:38;;;;;;;16.55;7.10;;;;;;;13.71;54.36;102183.34;5045733;28;20401;-66
2021/07/21 02:51:10;;;;;;;16.58;6.15;;;;;;;13.88;54.51;102188.06;5049473;28;20032;-68
2021/07/21 02:53:49;;;;;;;10.50;6.05;;;;;;;13.92;54.52;102184.44;5049277;28;20025;-68
2021/07/21 02:56:30;;;;;;;13.32;7.53;;;;;;;13.86;54.48;102181.16;5050569;28;20044;-67
2021/07/21 02:59:04;;;;;;;12.43;7.05;;;;;;;14.04;54.35;102190.19;5049915;28;20071;-67
2021/07/21 03:01:35;;;;;;;14.27;6.82;;;;;;;14.12;54.30;102196.91;5047119;28;20075;-68
2021/07/21 03:04:03;;;;;;;11.23;5.97;;;;;;;14.18;54.21;102192.34;5067823;28;20139;-66
2021/07/21 03:06:32;;;;;;;15.27;7.28;;;;;;;14.18;53.97;102187.09;5050909;28;20035;-67
2021/07/21 03:09:01;;;;;;;13.38;7.43;;;;;;;14.19;53.99;102194.94;5057891;28;20036;-66
2021/07/21 03:11:55;;;;;;;20.87;8.50;;;;;;;13.89;54.29;102187.16;5050191;28;20055;-67
2021/07/21 03:14:23;;;;;;;14.82;6.85;;;;;;;14.12;54.23;102191.66;5052161;28;20033;-65
2021/07/21 03:16:52;;;;;;;15.10;7.20;;;;;;;14.15;53.91;102188.06;5048025;28;20521;-66
2021/07/21 03:19:32;;;;;;;13.75;6.60;;;;;;;14.15;53.98;102193.31;5049707;28;20094;-67
2021/07/21 03:22:03;;;;;;;14.63;7.95;;;;;;;14.25;54.00;102197.31;5051057;28;20251;-70
2021/07/21 03:24:33;;;;;;;11.95;7.18;;;;;;;14.29;53.96;102182.31;5032456;28;20025;-67
2021/07/21 03:27:14;;;;;;;19.77;7.10;;;;;;;14.24;53.94;102187.72;5047365;28;20028;-66
2021/07/21 03:29:58;;;;;;;12.10;6.63;;;;;;;14.09;54.27;102190.88;5057221;28;20052;-68
2021/07/21 03:32:39;;;;;;;17.90;7.75;;;;;;;13.88;54.83;102190.69;5049177;28;20016;-70
2021/07/21 03:35:07;;;;;;;17.33;7.57;;;;;;;14.01;54.85;102185.91;5044915;28;20447;-70
2021/07/21 03:37:35;;;;;;;12.65;7.00;;;;;;;14.08;54.79;102186.56;5058040;28;20036;-69
2021/07/21 03:40:05;;;;;;;14.93;7.25;;;;;;;13.97;54.95;102188.69;5058405;28;20038;-66
2021/07/21 03:42:44;;;;;;;16.33;6.57;;;;;;;14.23;54.88;102198.28;5047837;28;20037;-66
2021/07/21 03:45:17;;;;;;;15.32;8.38;;;;;;;14.10;54.75;102195.25;5050797;28;20045;-67
2021/07/21 03:47:45;;;;;;;15.02;7.30;;;;;;;14.29;54.73;102198.09;5047914;28;20480;-65
2021/07/21 03:50:12;;;;;;;14.10;7.47;;;;;;;14.27;54.45;102203.41;5046254;28;20455;-66
2021/07/21 03:52:44;;;;;;;15.63;7.28;;;;;;;14.30;54.21;102198.03;5045825;28;20033;-67
2021/07/21 03:55:13;;;;;;;15.32;7.40;;;;;;;14.16;54.38;102200.28;5042131;28;20029;-69
2021/07/21 03:58:05;;;;;;;16.85;8.02;;;;;;;14.14;54.61;102207.34;5028998;28;20036;-65
2021/07/21 04:00:56;;;;;;;15.07;7.35;;;;;;;14.27;54.96;102208.66;5044600;28;20044;-66
2021/07/21 04:03:30;;;;;;;22.75;8.40;;;;;;;14.37;54.36;102203.94;5051519;28;20054;-68
2021/07/21 04:06:02;;;;;;;15.30;8.45;;;;;;;14.36;54.41;102208.34;5061694;28;20033;-69
2021/07/21 04:08:41;;;;;;;15.65;7.80;;;;;;;14.39;54.63;102207.38;5053069;28;20032;-67
2021/07/21 04:11:12;;;;;;;17.33;8.63;;;;;;;14.12;54.78;102210.06;5039491;28;20071;-70
2021/07/21 04:13:40;;;;;;;13.93;7.00;;;;;;;14.34;54.85;102211.94;5049458;28;20029;-69
2021/07/21 04:16:17;;;;;;;19.13;8.45;;;;;;;14.20;54.70;102215.03;5051249;28;20028;-68
2021/07/21 04:18:43;;;;;;;14.68;7.97;;;;;;;14.46;54.76;102222.06;5053342;28;20547;-68
2021/07/21 04:21:11;;;;;;;18.40;8.50;;;;;;;14.37;54.52;102211.84;5038841;28;20032;-68
2021/07/21 04:23:40;;;;;;;15.23;7.63;;;;;;;14.49;54.59;102214.06;5053040;28;20033;-68
2021/07/21 04:26:10;;;;;;;14.25;9.23;;;;;;;14.53;54.72;102220.09;5061091;28;20101;-67
2021/07/21 04:28:40;;;;;;;16.15;7.30;;;;;;;14.73;54.39;102220.22;5045318;28;20506;-65
2021/07/21 04:31:09;;;;;;;18.67;8.25;;;;;;;14.83;54.03;102222.50;5044228;28;20033;-68
2021/07/21 04:33:38;;;;;;;15.63;7.18;;;;;;;14.88;53.76;102212.66;5053360;28;20039;-69
2021/07/21 04:36:04;;;;;;;15.77;8.18;;;;;;;14.89;53.15;102211.78;5037739;28;20033;-69
2021/07/21 04:38:35;;;;;;;17.80;8.23;;;;;;;14.90;53.49;102218.75;5032561;28;20033;-69
2021/07/21 04:41:08;;;;;;;18.73;7.65;;;;;;;14.98;53.09;102221.94;5051671;28;20056;-68
2021/07/21 04:44:03;;;;;;;13.02;7.10;;;;;;;15.04;53.19;102219.09;5038375;28;20420;-67
2021/07/21 04:46:53;;;;;;;12.43;7.68;;;;;;;15.25;52.95;102224.50;5050904;28;20037;-69
2021/07/21 04:49:22;;;;;;;;;;;;;;;15.36;52.70;102224.94;5034466;28;20028;-68
2021/07/21 04:51:48;;;;;;;11.75;6.88;;;;;;;15.44;52.21;102229.88;5057666;28;20498;-66
2021/07/21 04:54:23;;;;;;;14.30;6.97;;;;;;;15.51;51.93;102234.88;5053144;28;20036;-69
2021/07/21 04:56:53;;;;;;;13.75;6.30;;;;;;;15.47;51.74;102228.00;5052038;28;20032;-65
2021/07/21 04:59:25;;;;;;;;;;;;;;;15.38;52.04;102236.28;5051945;28;20032;-66
2021/07/21 05:01:51;;;;;;;16.23;7.20;;;;;;;15.13;52.83;102237.19;5051231;28;19923;-68
2021/07/21 05:04:17;;;;;;;13.80;7.20;;;;;;;15.15;52.71;102239.75;5039916;28;20040;-68
2021/07/21 05:07:12;;;;;;;14.40;7.03;;;;;;;15.50;52.63;102243.69;5055469;28;20029;-68
2021/07/21 05:09:46;;;;;;;10.40;6.22;;;;;;;15.74;51.61;102235.72;5054883;28;20033;-67
2021/07/21 05:12:13;;;;;;;13.18;6.38;;;;;;;15.92;51.40;102242.88;5052220;28;20474;-66
2021/07/21 05:14:46;;;;;;;11.57;5.75;;;;;;;16.10;51.15;102245.72;5055357;28;20493;-65
2021/07/21 05:17:43;;;;;;;11.85;6.00;;;;;;;16.15;50.77;102254.28;5027714;28;20045;-68
2021/07/21 05:20:16;;;;;;;11.98;5.78;;;;;;;16.16;50.64;102240.19;5052560;28;20400;-65
2021/07/21 05:22:59;;;;;;;9.93;5.88;;;;;;;15.99;50.97;102249.66;5050972;28;20106;-66
2021/07/21 05:25:37;;;;;;;13.00;6.75;;;;;;;16.02;51.56;102256.59;5052808;28;20032;-66
2021/07/21 05:28:30;;;;;;;11.88;5.72;;;;;;;16.18;51.36;102259.47;5035301;28;20035;-66
2021/07/21 05:31:03;;;;;;;13.25;6.40;;;;;;;16.04;51.56;102259.16;5053863;28;20032;-64
2021/07/21 05:33:37;;;;;;;11.60;6.55;;;;;;;16.03;51.44;102257.44;5052893;28;20036;-67
2021/07/21 05:36:03;;;;;;;11.50;5.00;;;;;;;16.38;50.89;102266.53;5034300;28;20083;-64
2021/07/21 05:38:32;;;;;;;11.35;5.43;;;;;;;16.47;50.47;102262.66;5051652;28;20029;-66
2021/07/21 05:40:59;;;;;;;9.38;5.63;;;;;;;16.58;50.33;102263.88;5036508;28;20028;-65
2021/07/21 05:43:37;;;;;;;9.75;5.78;;;;;;;16.79;50.46;102263.88;5053211;28;20035;-66
2021/07/21 05:46:06;;;;;;;11.82;7.25;;;;;;;16.78;50.07;102263.03;5052401;28;20032;-65
2021/07/21 05:48:37;;;;;;;11.35;6.57;;;;;;;16.68;49.76;102263.47;5052870;28;20029;-66
2021/07/21 05:51:28;;;;;;;10.98;5.55;;;;;;;16.85;50.44;102260.13;5051936;28;20083;-68
2021/07/21 05:54:03;;;;;;;10.93;5.20;;;;;;;16.96;49.52;102264.00;5050898;28;20025;-69
2021/07/21 05:56:30;;;;;;;9.68;5.32;;;;;;;17.06;49.96;102263.56;5049804;28;20442;-65
2021/07/21 05:58:59;;;;;;;10.82;5.25;;;;;;;17.04;49.46;102271.56;5041653;28;20108;-65
2021/07/21 06:01:26;;;;;;;9.82;5.57;;;;;;;17.23;48.21;102267.16;5048800;28;20040;-66
2021/07/21 06:03:52;;;;;;;25.33;12.60;;;;;;;16.93;50.00;102265.91;5050627;28;20031;-66
2021/07/21 06:06:24;;;;;;;13.25;6.13;;;;;;;17.03;49.19;102260.16;5051882;28;20037;-65
2021/07/21 06:09:16;;;;;;;8.68;5.00;;;;;;;16.78;50.32;102259.56;5031047;28;20120;-66
2021/07/21 06:12:09;;;;;;;10.77;5.95;;;;;;;17.07;50.28;102260.00;5044185;28;20039;-65
2021/07/21 06:14:35;;;;;;;10.52;6.13;;;;;;;17.21;49.46;102257.59;5056470;28;20489;-66
2021/07/21 06:17:02;;;;;;;14.25;5.80;;;;;;;16.97;49.82;102264.84;5051211;28;20488;-66
2021/07/21 06:19:33;;;;;;;11.82;5.63;;;;;;;17.47;49.84;102264.31;5049642;28;20478;-66
2021/07/21 06:22:02;;;;;;;10.73;5.72;;;;;;;17.82;48.52;102265.25;5049410;28;20078;-68
2021/07/21 06:24:51;;;;;;;12.07;5.45;;;;;;;18.70;46.71;102258.22;5057031;28;20085;-70
2021/07/21 06:27:39;;;;;;;8.45;5.32;;;;;;;19.25;44.79;102259.69;5048567;28;20474;-67
2021/07/21 06:30:07;;;;;;;11.07;5.72;;;;;;;19.14;45.15;102262.94;5050692;28;20051;-66
2021/07/21 06:32:38;;;;;;;9.88;5.35;;;;;;;18.67;46.03;102268.97;5031955;28;20043;-67
2021/07/21 06:35:06;;;;;;;11.27;5.30;;;;;;;18.74;45.41;102275.63;5046739;28;20080;-66
2021/07/21 06:37:32;;;;;;;10.02;5.60;;;;;;;18.85;45.14;102275.97;5050387;28;20063;-67
2021/07/21 06:40:02;;;;;;;9.65;5.05;;;;;;;18.87;46.39;102282.03;5052263;28;20459;-66
2021/07/21 06:42:29;;;;;;;9.60;5.72;;;;;;;18.73;46.07;102292.47;5047326;28;20036;-66
2021/07/21 06:44:55;;;;;;;9.65;4.40;;;;;;;18.92;45.42;102286.22;5051880;28;20099;-71
2021/07/21 06:47:30;;;;;;;7.60;4.07;;;;;;;18.91;45.17;102289.84;5046588;28;20079;-70
2021/07/21 06:50:04;;;;;;;10.27;5.00;;;;;;;18.63;46.04;102296.53;5051818;28;20043;-71
2021/07/21 06:52:34;;;;;;;9.23;4.78;;;;;;;18.70;45.43;102295.31;5036593;28;20033;-70
2021/07/21 06:55:02;;;;;;;6.97;4.00;;;;;;;18.73;45.67;102297.78;5066888;28;20120;-71
2021/07/21 06:57:51;;;;;;;8.97;5.10;;;;;;;18.44;45.52;102300.13;5050729;28;20405;-71
2021/07/21 07:00:35;;;;;;;7.35;5.28;;;;;;;17.99;47.08;102301.47;5053313;28;20285;-69
2021/07/21 07:03:03;;;;;;;8.15;4.25;;;;;;;18.46;46.52;102303.56;5052423;28;20051;-65
2021/07/21 07:05:48;;;;;;;8.77;4.53;;;;;;;18.31;46.08;102301.69;5050858;28;20052;-68
2021/07/21 07:08:32;;;;;;;7.80;3.90;;;;;;;18.46;45.84;102305.38;5048855;28;20070;-68
2021/07/21 07:11:24;;;;;;;9.38;4.78;;;;;;;18.53;45.72;102309.41;5041825;28;20028;-69
2021/07/21 07:13:49;;;;;;;8.90;4.53;;;;;;;18.56;45.91;102308.38;5049287;28;20021;-67
2021/07/21 07:16:15;;;;;;;11.30;5.35;;;;;;;18.56;46.07;102308.38;5051911;28;20397;-67
2021/07/21 07:18:40;;;;;;;6.78;5.25;;;;;;;18.66;45.59;102309.63;5065550;28;20086;-68
2021/07/21 07:21:06;;;;;;;10.85;4.63;;;;;;;18.60;45.95;102310.78;5047423;28;20467;-67
2021/07/21 07:23:32;;;;;;;7.47;4.82;;;;;;;18.29;46.12;102310.66;5064837;28;20035;-68
2021/07/21 07:25:58;;;;;;;8.07;4.97;;;;;;;18.60;45.63;102309.94;5053993;28;20028;-67
2021/07/21 07:28:24;;;;;;;13.75;5.28;;;;;;;18.36;46.51;102312.88;5051341;28;20726;-67
2021/07/21 07:30:49;;;;;;;7.13;4.20;;;;;;;18.60;45.74;102315.25;5050276;28;20056;-67
2021/07/21 07:33:14;;;;;;;8.05;4.20;;;;;;;18.22;46.52;102321.53;5047524;28;20044;-69
2021/07/21 07:35:40;;;;;;;10.95;5.88;;;;;;;18.56;45.95;102316.31;5048565;28;20295;-66
2021/07/21 07:38:11;;;;;;;10.05;5.55;;;;;;;18.48;45.91;102317.59;5057440;28;20029;-68
2021/07/21 07:40:41;;;;;;;9.18;4.80;;;;;;;18.85;45.69;102313.03;5061374;28;20040;-68
2021/07/21 07:43:08;;;;;;;10.68;6.13;;;;;;;18.95;45.73;102316.09;5053634;28;20037;-68
2021/07/21 07:45:34;;;;;;;9.93;4.65;;;;;;;18.94;44.66;102308.22;5053859;28;20047;-69
2021/07/21 07:48:00;;;;;;;8.65;4.90;;;;;;;19.24;43.78;102314.50;5055986;28;20178;-67
2021/07/21 07:50:25;;;;;;;10.68;5.35;;;;;;;19.29;44.29;102315.13;5054840;28;20515;-68
2021/07/21 07:52:51;;;;;;;6.07;4.15;;;;;;;19.19;43.71;102308.63;5056412;28;20148;-68
2021/07/21 07:55:16;;;;;;;7.03;4.30;;;;;;;18.94;44.82;102318.81;5054268;28;20036;-67
2021/07/21 07:57:42;;;;;;;8.35;4.85;;;;;;;19.03;44.91;102313.00;5052263;28;20401;-68
2021/07/21 08:00:10;;;;;;;7.90;4.32;;;;;;;19.12;44.69;102311.66;5056841;28;20158;-68
2021/07/21 08:02:41;;;;;;;8.30;4.45;;;;;;;19.15;44.72;102316.81;5051205;28;20081;-69
2021/07/21 08:05:08;;;;;;;11.30;4.80;;;;;;;19.21;44.62;102314.69;5056400;28;20024;-69
2021/07/21 08:07:35;;;;;;;5.95;4.30;;;;;;;19.37;43.49;102319.13;5058830;28;20588;-68
2021/07/21 08:10:03;;;;;;;6.82;3.88;;;;;;;19.56;43.94;102316.38;5056456;28;20448;-67
2021/07/21 08:12:28;;;;;;;7.55;4.20;;;;;;;19.54;44.06;102319.06;5051739;28;20033;-68
2021/07/21 08:14:53;;;;;;;7.43;4.82;;;;;;;20.02;44.11;102314.63;5055855;28;20047;-68
2021/07/21 08:17:19;;;;;;;9.05;4.15;;;;;;;20.10;42.42;102322.13;5056818;28;20029;-67
2021/07/21 08:19:44;;;;;;;8.23;3.22;;;;;;;19.97;41.25;102322.00;5055277;28;20033;-66
2021/07/21 08:22:11;;;;;;;5.90;3.45;;;;;;;20.01;40.73;102312.06;5055182;28;20393;-67
2021/07/21 08:24:37;;;;;;;6.30;3.47;;;;;;;20.39;40.05;102312.50;5055592;28;20119;-68
2021/07/21 08:27:03;;;;;;;5.35;3.25;;;;;;;20.48;38.87;102319.06;5052508;28;20032;-68
2021/07/21 08:29:28;;;;;;;6.80;3.40;;;;;;;20.28;39.51;102315.81;5054977;28;20125;-67
2021/07/21 08:31:54;;;;;;;4.97;2.92;;;;;;;20.81;38.51;102317.97;5054844;28;20127;-67
2021/07/21 08:34:19;;;;;;;6.07;3.83;;;;;;;21.18;37.67;102315.72;5060838;28;20088;-66
2021/07/21 08:36:45;;;;;;;5.35;3.08;;;;;;;21.44;37.87;102316.72;5060550;28;20055;-67
2021/07/21 08:39:12;;;;;;;5.85;3.45;;;;;;;21.55;36.80;102322.25;5053846;28;20488;-68
2021/07/21 08:41:39;;;;;;;6.38;3.60;;;;;;;20.97;36.95;102323.22;5054768;28;20072;-67
2021/07/21 08:44:06;;;;;;;8.40;3.88;;;;;;;21.10;36.56;102318.88;5051441;28;20606;-67
2021/07/21 08:46:35;;;;;;;7.22;4.03;;;;;;;20.81;36.84;102321.47;5053938;28;20060;-67
2021/07/21 08:49:00;;;;;;;7.28;4.18;;;;;;;20.75;36.70;102319.19;5052617;28;20041;-67
2021/07/21 08:51:27;;;;;;;11.98;5.20;;;;;;;20.63;37.33;102325.25;5057364;28;20040;-69
2021/07/21 08:53:52;;;;;;;16.77;5.25;;;;;;;20.79;37.97;102327.84;5049005;28;20098;-67
2021/07/21 08:56:19;;;;;;;7.20;4.47;;;;;;;20.60;36.88;102325.47;5054482;28;20469;-68
2021/07/21 08:58:46;;;;;;;13.15;6.15;;;;;;;20.60;38.48;102322.81;5051112;28;20075;-68
2021/07/21 09:01:12;;;;;;;9.38;5.07;;;;;;;20.61;37.14;102328.00;5071346;28;20538;-68
2021/07/21 09:03:38;;;;;;;9.75;4.22;;;;;;;20.48;37.32;102327.88;5052707;28;20033;-66
2021/07/21 09:06:03;;;;;;;10.00;4.88;;;;;;;20.62;37.18;102329.72;5053350;28;20496;-68
2021/07/21 09:08:33;;;;;;;6.60;4.10;;;;;;;21.21;36.48;102332.34;5054284;28;20507;-68
2021/07/21 09:10:59;;;;;;;11.60;4.57;;;;;;;21.11;35.58;102325.88;5054870;28;20033;-68
2021/07/21 09:13:25;;;;;;;8.45;4.68;;;;;;;20.82;36.33;102328.53;5054224;28;20032;-68
2021/07/21 09:15:50;;;;;;;7.70;4.60;;;;;;;20.37;37.40;102335.63;5049432;28;21030;-68
2021/07/21 09:18:17;;;;;;;8.93;4.30;;;;;;;20.48;38.32;102335.84;5053719;28;20056;-68
2021/07/21 09:20:54;;;;;;;7.93;5.30;;;;;;;20.62;37.02;102336.81;5036647;28;20466;-67
2021/07/21 09:23:20;;;;;;;9.35;5.30;;;;;;;20.18;37.61;102334.97;5054426;28;20021;-68
2021/07/21 09:25:46;;;;;;;8.43;4.43;;;;;;;20.23;36.80;102335.59;5052059;28;20037;-69
2021/07/21 09:28:13;;;;;;;9.55;4.10;;;;;;;20.49;37.28;102332.25;5053512;28;20143;-69
2021/07/21 09:30:43;;;;;;;6.70;4.20;;;;;;;20.20;37.21;102341.06;5052555;28;20044;-69
2021/07/21 09:33:11;;;;;;;7.63;4.88;;;;;;;20.63;37.33;102341.19;5052960;28;20492;-67
2021/07/21 09:35:45;;;;;;;5.47;4.10;;;;;;;20.80;36.26;102335.72;5054973;28;20036;-70
2021/07/21 09:38:19;;;;;;;7.03;4.20;;;;;;;21.28;36.28;102338.97;5057659;28;20056;-67
2021/07/21 09:40:48;;;;;;;6.65;5.07;;;;;;;21.06;36.61;102341.28;5054970;28;20075;-70
2021/07/21 09:43:18;;;;;;;6.40;4.35;;;;;;;21.14;35.95;102341.66;5053934;28;20062;-68
2021/07/21 09:45:45;;;;;;;8.75;5.40;;;;;;;21.18;35.43;102337.88;5053538;28;20082;-68
2021/07/21 09:48:11;;;;;;;9.02;4.72;;;;;;;21.07;35.73;102343.00;5046952;28;20054;-69
2021/07/21 09:50:45;;;;;;;9.75;4.80;;;;;;;21.17;36.63;102345.94;5053256;28;20114;-69
2021/07/21 09:53:13;;;;;;;8.00;4.82;;;;;;;21.10;35.25;102345.44;5054693;28;20033;-68
2021/07/21 09:55:45;;;;;;;7.13;4.20;;;;;;;21.20;35.53;102343.94;5058546;28;20082;-68
2021/07/21 09:58:19;;;;;;;6.47;4.78;;;;;;;21.42;35.47;102351.41;5053031;28;20032;-69
2021/07/21 10:00:46;;;;;;;7.47;4.35;;;;;;;21.33;35.82;102342.22;5052907;28;20094;-68
2021/07/21 10:03:15;;;;;;;6.15;3.65;;;;;;;21.75;36.10;102342.25;5050302;28;20048;-68
2021/07/21 10:06:09;;;;;;;9.65;4.80;;;;;;;21.77;34.64;102345.66;5050978;28;20032;-68
2021/07/21 10:08:44;;;;;;;7.15;4.55;;;;;;;22.34;34.09;102340.16;5052430;28;20067;-68
2021/07/21 10:11:36;;;;;;;8.02;4.78;;;;;;;22.72;33.90;102341.19;5067792;28;20067;-68
2021/07/21 10:14:01;;;;;;;9.18;5.72;;;;;;;22.70;32.97;102340.44;5053549;28;20038;-68
2021/07/21 10:16:44;;;;;;;8.35;4.53;;;;;;;23.44;31.03;102335.28;5054579;28;20043;-68
2021/07/21 10:19:15;;;;;;;6.50;4.03;;;;;;;24.69;30.83;102337.56;5057657;28;20407;-68
2021/07/21 10:21:43;;;;;;;;;;;;;;;25.66;28.61;102341.44;5052968;28;20028;-71
2021/07/21 10:24:10;;;;;;;7.50;4.20;;;;;;;25.47;29.22;102345.59;5053407;28;19924;-70
2021/07/21 10:26:36;;;;;;;7.68;4.50;;;;;;;24.69;29.20;102340.22;5067378;28;20074;-69
2021/07/21 10:29:03;;;;;;;12.38;4.82;;;;;;;24.30;29.82;102336.94;5049704;28;20028;-69
2021/07/21 10:31:29;;;;;;;8.95;5.07;;;;;;;22.42;31.87;102342.28;5070184;28;20440;-69
2021/07/21 10:33:55;;;;;;;9.65;5.03;;;;;;;22.85;31.89;102336.72;5058450;28;20028;-69
2021/07/21 10:36:21;;;;;;;8.95;4.93;;;;;;;23.33;32.40;102336.88;5054058;28;20036;-69
2021/07/21 10:38:48;;;;;;;8.25;5.70;;;;;;;22.88;32.73;102333.84;5051718;28;20122;-68
2021/07/21 10:41:15;;;;;;;8.45;4.80;;;;;;;22.43;33.67;102340.47;5050758;28;20052;-68
2021/07/21 10:43:46;;;;;;;13.88;4.93;;;;;;;22.18;34.15;102339.44;5049998;28;20028;-69
2021/07/21 10:46:32;;;;;;;8.50;6.22;;;;;;;21.18;34.82;102348.50;5052824;28;20033;-68
2021/07/21 10:49:32;;;;;;;9.13;4.55;;;;;;;21.59;35.75;102341.53;5051689;28;20070;-69
2021/07/21 11:00:09;;;;;;;9.10;4.80;;;;;;;22.29;33.88;102334.28;5052760;28;20032;-68
2021/07/21 11:02:35;;;;;;;6.15;4.22;;;;;;;22.52;33.58;102326.53;5050689;28;20024;-68
2021/07/21 11:05:01;;;;;;;11.00;4.72;;;;;;;22.44;34.92;102337.72;5052946;28;20028;-69
2021/07/21 11:07:49;;;;;;;9.45;4.47;;;;;;;21.25;36.39;102333.88;5051530;28;20505;-68
2021/07/21 11:10:14;;;;;;;7.25;5.43;;;;;;;21.28;36.94;102327.50;5050533;28;20091;-70
2021/07/21 11:12:49;;;;;;;9.20;5.47;;;;;;;21.66;36.78;102325.06;5051135;28;20473;-67
2021/07/21 11:15:34;;;;;;;10.35;4.65;;;;;;;22.04;35.48;102332.34;5041221;28;20470;-69
2021/07/21 11:18:24;;;;;;;9.32;5.68;;;;;;;21.89;36.28;102330.69;5051279;28;20068;-69
2021/07/21 11:20:59;;;;;;;10.27;5.43;;;;;;;22.48;35.60;102341.03;5048692;28;20051;-67
2021/07/21 11:23:44;;;;;;;10.85;5.50;;;;;;;22.59;35.67;102339.34;5047033;28;20063;-68
2021/07/21 11:26:29;;;;;;;11.85;5.25;;;;;;;22.83;34.56;102329.75;5050532;28;20047;-68
2021/07/21 11:28:56;;;;;;;10.30;5.47;;;;;;;22.84;34.17;102335.00;5045646;28;20036;-68
2021/07/21 11:31:53;;;;;;;13.15;5.50;;;;;;;23.69;31.85;102329.84;5049728;28;20160;-68
2021/07/21 11:34:33;;;;;;;8.48;5.18;;;;;;;25.16;31.27;102330.31;5048448;28;20036;-70
2021/07/21 11:37:03;;;;;;;10.05;5.85;;;;;;;24.49;31.18;102318.56;5050330;28;20040;-68
2021/07/21 11:39:34;;;;;;;9.05;5.10;;;;;;;23.64;32.56;102326.66;5050106;28;20469;-69
2021/07/21 11:42:00;;;;;;;8.23;4.82;;;;;;;23.27;33.90;102332.00;5047784;28;20040;-68
2021/07/21 11:44:34;;;;;;;9.32;5.82;;;;;;;23.09;33.35;102330.59;5050818;28;20501;-67
2021/07/21 11:47:02;;;;;;;9.80;5.15;;;;;;;22.75;33.24;102324.97;5050736;28;20437;-68
2021/07/21 11:49:29;;;;;;;10.73;5.25;;;;;;;22.40;33.70;102330.88;5049197;28;20087;-70
2021/07/21 11:52:02;;;;;;;9.85;4.80;;;;;;;22.66;34.26;102325.59;5048291;28;20044;-67